KFRH/FRH METAR and TAF weather

Enter ICAO airport designator
Station Type Date Time Source
KFRH METAR 2020/06/06 02:35 UTC NOAA

KFRH 060235Z AUTO 00000KT 10SM CLR 23/18 A2997 RMK AO1


Station Type Date Time Source
KFRH Decoded METAR 2020/06/06 02:35 UTC NOAA

Station name not available
Jun 05, 2020 - 10:35 PM EDT / 2020.06.06 0235 UTC
Wind: Calm:0
Visibility: 10 mile(s):0
Sky conditions: clear
Temperature: 73 F (23 C)
Dew Point: 64 F (18 C)
Relative Humidity: 73%
Pressure (altimeter): 29.97 in. Hg (1014 hPa)
ob: KFRH 060235Z AUTO 00000KT 10SM CLR 23/18 A2997 RMK AO1
cycle: 2

Station Type Date Time Source
KFRH TAF UTC NOAA

Error!

Example: see airport list